Time;durP1;ratioP1;P1;durP2;ratioP2;P2;SDS_P1;SDS_P2;PMS_P1;PMS_P2;Temp;Humidity;BMP_temperature;BMP_pressure;BME280_temperature;BME280_humidity;BME280_pressure;Samples;Min_cycle;Max_cycle;Signal;HPM_P1;HPM_P2
2023/09/23 00:00:19;;;;;;;5.53;1.10;;;17.90;59.60;;;;;;5115542;28;20591;-79
2023/09/23 00:02:47;;;;;;;3.87;1.17;;;17.80;60.00;;;;;;5116978;28;20213;-77
2023/09/23 00:05:16;;;;;;;5.93;1.30;;;17.80;60.70;;;;;;5119491;28;20178;-77
2023/09/23 00:07:44;;;;;;;4.33;1.10;;;17.80;60.30;;;;;;5118036;28;20190;-78
2023/09/23 00:10:12;;;;;;;3.23;1.30;;;17.90;59.30;;;;;;5118258;28;20890;-79
2023/09/23 00:12:40;;;;;;;4.53;1.30;;;17.90;60.30;;;;;;5117410;28;20587;-78
2023/09/23 00:15:10;;;;;;;5.57;1.20;;;18.00;60.20;;;;;;5122287;28;20189;-79
2023/09/23 00:17:38;;;;;;;3.07;0.87;;;18.00;60.00;;;;;;5112607;28;20172;-82
2023/09/23 00:20:14;;;;;;;2.87;1.10;;;18.00;58.60;;;;;;5116373;28;20186;-79
2023/09/23 00:22:42;;;;;;;3.87;1.30;;;17.90;58.60;;;;;;5118899;28;20223;-80
2023/09/23 00:25:09;;;;;;;3.50;1.40;;;18.00;58.50;;;;;;5123280;27;20196;-79
2023/09/23 00:27:39;;;;;;;5.43;1.67;;;18.00;58.80;;;;;;5117768;27;20331;-79
2023/09/23 00:30:07;;;;;;;5.43;1.20;;;18.00;58.70;;;;;;5120797;27;20252;-81
2023/09/23 00:32:37;;;;;;;4.33;1.50;;;18.00;58.30;;;;;;5115722;27;20701;-79
2023/09/23 00:35:06;;;;;;;4.13;1.60;;;18.00;58.90;;;;;;5122592;27;20224;-81
2023/09/23 00:37:34;;;;;;;6.47;1.27;;;18.00;58.60;;;;;;5102119;28;20180;-77
2023/09/23 00:40:03;;;;;;;2.00;1.10;;;18.00;58.50;;;;;;5117833;27;20197;-79
2023/09/23 00:42:30;;;;;;;4.10;1.77;;;18.00;58.20;;;;;;5123042;27;20182;-79
2023/09/23 00:44:57;;;;;;;6.13;1.17;;;18.00;58.40;;;;;;5118937;27;20727;-83
2023/09/23 00:47:25;;;;;;;5.50;1.20;;;18.20;58.30;;;;;;5118880;27;20209;-79
2023/09/23 00:49:52;;;;;;;3.07;1.10;;;18.30;56.50;;;;;;5114161;27;20194;-78
2023/09/23 00:52:20;;;;;;;6.00;1.27;;;18.20;57.00;;;;;;5121357;27;20719;-77
2023/09/23 00:54:49;;;;;;;5.73;1.20;;;18.10;56.20;;;;;;5121276;27;20186;-81
2023/09/23 00:57:17;;;;;;;5.27;1.10;;;18.30;56.80;;;;;;5111973;27;20204;-80
2023/09/23 00:59:44;;;;;;;4.77;0.90;;;18.40;55.60;;;;;;5116628;27;20212;-79
2023/09/23 01:02:13;;;;;;;4.40;1.50;;;18.50;54.60;;;;;;5097553;27;20190;-78
2023/09/23 01:04:41;;;;;;;3.73;1.17;;;18.60;53.90;;;;;;5117982;27;20866;-79
2023/09/23 01:07:09;;;;;;;3.27;1.23;;;18.70;54.30;;;;;;5114708;27;20256;-80
2023/09/23 01:09:37;;;;;;;3.17;0.80;;;18.80;54.20;;;;;;5118388;27;20182;-78
2023/09/23 01:12:08;;;;;;;2.27;0.97;;;18.50;52.60;;;;;;5115332;27;20666;-79
2023/09/23 01:14:35;;;;;;;2.57;1.00;;;18.60;53.20;;;;;;5115862;27;20216;-77
2023/09/23 01:17:10;;;;;;;3.70;1.13;;;18.70;52.70;;;;;;5110323;27;20185;-78
2023/09/23 01:19:40;;;;;;;2.73;0.70;;;18.80;53.00;;;;;;5115389;27;20195;-79
2023/09/23 01:22:08;;;;;;;3.73;1.77;;;18.70;51.60;;;;;;5116557;27;20209;-79
2023/09/23 01:24:36;;;;;;;4.67;1.20;;;18.60;51.70;;;;;;5117247;27;20182;-78
2023/09/23 01:27:03;;;;;;;1.33;0.87;;;18.60;52.80;;;;;;5118075;27;20217;-80
2023/09/23 01:29:32;;;;;;;3.83;1.07;;;19.10;52.30;;;;;;5117983;27;20186;-79
2023/09/23 01:32:36;;;;;;;1.63;0.70;;;19.20;51.20;;;;;;5099929;28;20520;-79
2023/09/23 01:35:05;;;;;;;2.43;0.93;;;19.80;50.50;;;;;;5117070;27;20252;-81
2023/09/23 01:37:34;;;;;;;1.87;1.00;;;19.60;49.10;;;;;;5118379;27;20229;-80
2023/09/23 01:40:03;;;;;;;2.63;0.80;;;19.90;49.20;;;;;;5124339;27;20208;-77
2023/09/23 01:42:32;;;;;;;3.23;1.00;;;20.20;47.80;;;;;;5119351;27;20181;-76
2023/09/23 01:45:00;;;;;;;2.70;1.00;;;20.20;48.70;;;;;;5097453;27;20181;-78
2023/09/23 01:47:27;;;;;;;4.07;0.93;;;20.10;49.00;;;;;;5118499;27;20251;-77
2023/09/23 01:49:55;;;;;;;0.90;0.80;;;19.90;49.40;;;;;;5118864;27;20174;-77
2023/09/23 01:52:22;;;;;;;4.67;0.80;;;19.70;49.50;;;;;;5115672;27;20558;-76
2023/09/23 01:54:49;;;;;;;2.30;0.80;;;19.50;50.00;;;;;;5114565;27;20182;-76
2023/09/23 01:57:17;;;;;;;3.00;1.00;;;19.20;50.40;;;;;;5115420;27;20181;-77
2023/09/23 01:59:45;;;;;;;2.07;0.93;;;19.10;49.60;;;;;;5117270;27;20539;-77
2023/09/23 02:02:12;;;;;;;2.30;1.00;;;19.10;51.10;;;;;;5116545;27;20604;-76
2023/09/23 02:04:40;;;;;;;2.47;1.00;;;19.30;50.80;;;;;;5116917;27;20181;-72
2023/09/23 02:07:10;;;;;;;3.63;0.90;;;19.50;50.40;;;;;;5116061;27;20224;-75
2023/09/23 02:09:38;;;;;;;6.03;1.20;;;19.40;49.40;;;;;;5119197;27;20178;-76
2023/09/23 02:12:06;;;;;;;3.70;1.03;;;19.30;50.10;;;;;;5117103;27;20181;-75
2023/09/23 02:14:33;;;;;;;4.50;0.90;;;19.30;50.50;;;;;;5099154;28;20174;-77
2023/09/23 02:17:00;;;;;;;1.47;0.80;;;19.30;49.80;;;;;;5118147;27;20185;-76
2023/09/23 02:19:28;;;;;;;2.90;1.70;;;19.30;49.80;;;;;;5117882;27;20185;-75
2023/09/23 02:21:55;;;;;;;2.00;1.00;;;19.60;48.60;;;;;;5118365;27;20200;-77
2023/09/23 02:24:23;;;;;;;3.77;1.00;;;20.00;47.00;;;;;;5115761;27;20197;-78
2023/09/23 02:26:50;;;;;;;3.33;0.70;;;20.30;46.80;;;;;;5115016;27;20295;-76
2023/09/23 02:29:17;;;;;;;1.37;0.80;;;20.30;46.40;;;;;;5117658;27;20323;-78
2023/09/23 02:31:47;;;;;;;3.07;0.90;;;20.30;47.00;;;;;;5118811;27;20204;-78
2023/09/23 02:34:20;;;;;;;1.13;0.77;;;20.40;47.50;;;;;;5116359;27;20217;-76
2023/09/23 02:36:49;;;;;;;3.00;1.00;;;19.80;47.00;;;;;;5114350;27;20563;-76
2023/09/23 02:39:20;;;;;;;2.00;1.10;;;19.60;47.90;;;;;;5120937;27;20194;-79
2023/09/23 02:41:49;;;;;;;2.23;1.30;;;19.70;48.30;;;;;;5120822;27;20198;-77
2023/09/23 02:44:22;;;;;;;2.77;1.20;;;19.70;48.30;;;;;;5115264;27;20705;-76
2023/09/23 02:46:52;;;;;;;2.87;1.03;;;19.30;50.00;;;;;;5116700;27;20262;-77
2023/09/23 02:49:20;;;;;;;1.53;1.13;;;19.30;50.10;;;;;;5115422;27;20186;-77
2023/09/23 02:51:49;;;;;;;2.20;1.00;;;19.30;49.80;;;;;;5117473;27;20635;-76
2023/09/23 02:54:17;;;;;;;2.83;1.10;;;19.10;50.10;;;;;;5115281;27;20189;-79
2023/09/23 02:56:50;;;;;;;3.53;1.17;;;19.00;50.10;;;;;;5118656;27;20631;-78
2023/09/23 02:59:26;;;;;;;5.83;1.20;;;19.10;50.80;;;;;;5118087;27;20186;-78
2023/09/23 03:01:53;;;;;;;6.77;3.83;;;19.40;50.50;;;;;;5118549;27;20223;-77
2023/09/23 03:04:23;;;;;;;6.97;3.23;;;19.50;49.40;;;;;;5118448;27;20199;-79
2023/09/23 03:06:56;;;;;;;6.63;3.67;;;19.60;49.30;;;;;;5116994;27;20315;-76
2023/09/23 03:09:25;;;;;;;3.07;1.47;;;19.70;49.40;;;;;;5117798;27;20247;-78
2023/09/23 03:11:56;;;;;;;3.93;1.17;;;19.80;49.20;;;;;;5118836;27;20192;-80
2023/09/23 03:14:28;;;;;;;3.07;1.00;;;19.80;48.50;;;;;;5117386;27;20204;-77
2023/09/23 03:16:57;;;;;;;2.73;0.90;;;19.60;49.60;;;;;;5118578;27;20182;-77
2023/09/23 03:19:25;;;;;;;5.07;1.00;;;20.50;48.50;;;;;;5116682;27;20186;-77
2023/09/23 03:21:57;;;;;;;1.33;0.80;;;21.60;45.60;;;;;;5118648;27;20192;-78
2023/09/23 03:24:26;;;;;;;1.30;0.70;;;22.20;42.70;;;;;;5117946;27;20550;-76
2023/09/23 03:27:00;;;;;;;2.83;0.77;;;22.80;41.50;;;;;;5100364;27;20244;-74
2023/09/23 03:29:29;;;;;;;2.50;0.97;;;22.50;43.20;;;;;;5117188;27;20189;-76
2023/09/23 03:32:00;;;;;;;1.67;0.70;;;22.60;42.90;;;;;;5115369;27;20541;-75
2023/09/23 03:34:29;;;;;;;2.53;0.90;;;22.50;42.20;;;;;;5113604;27;20233;-76
2023/09/23 03:36:58;;;;;;;1.83;0.70;;;22.60;42.00;;;;;;5115702;27;20193;-74
2023/09/23 03:39:26;;;;;;;1.97;0.80;;;22.30;42.90;;;;;;5114626;27;20193;-73
2023/09/23 03:41:56;;;;;;;3.13;1.07;;;22.50;41.80;;;;;;5116455;27;20182;-79
2023/09/23 03:44:23;;;;;;;1.10;0.60;;;22.10;42.90;;;;;;5115628;27;20197;-76
2023/09/23 03:46:52;;;;;;;1.53;0.63;;;22.60;42.20;;;;;;5116812;27;20214;-76
2023/09/23 03:49:20;;;;;;;2.73;1.13;;;22.80;41.90;;;;;;5114815;28;20190;-75
2023/09/23 03:51:48;;;;;;;3.10;0.90;;;22.60;40.90;;;;;;5116520;28;20182;-75
2023/09/23 03:54:17;;;;;;;2.20;1.07;;;23.20;40.80;;;;;;5117150;27;20186;-78
2023/09/23 03:56:44;;;;;;;6.57;1.10;;;23.50;40.30;;;;;;5098997;28;20305;-75
2023/09/23 03:59:12;;;;;;;1.37;0.60;;;24.30;39.20;;;;;;5114779;28;20186;-77
2023/09/23 04:01:39;;;;;;;1.37;0.53;;;24.30;38.40;;;;;;5115355;28;20212;-77
2023/09/23 04:04:10;;;;;;;1.27;0.60;;;24.30;37.70;;;;;;5117249;27;20174;-76
2023/09/23 04:06:38;;;;;;;2.40;0.80;;;24.50;37.60;;;;;;5115109;28;20201;-76
2023/09/23 04:09:10;;;;;;;1.90;0.70;;;24.10;38.30;;;;;;5116794;28;20181;-74
2023/09/23 04:11:37;;;;;;;5.57;0.87;;;24.00;38.70;;;;;;5112755;28;20189;-74
2023/09/23 04:14:06;;;;;;;3.47;1.00;;;23.20;39.20;;;;;;5117186;28;20511;-76
2023/09/23 04:16:33;;;;;;;0.80;0.47;;;23.60;39.50;;;;;;5095185;28;20184;-76
2023/09/23 04:19:00;;;;;;;1.93;1.23;;;24.20;37.50;;;;;;5113997;28;20241;-73
2023/09/23 04:21:30;;;;;;;2.20;0.70;;;23.80;38.30;;;;;;5112151;28;20186;-74
2023/09/23 04:24:00;;;;;;;2.07;0.87;;;23.20;39.90;;;;;;5116342;28;20186;-73
2023/09/23 04:26:28;;;;;;;4.73;0.70;;;22.80;39.90;;;;;;5116376;28;20221;-74
2023/09/23 04:28:55;;;;;;;2.73;0.93;;;22.40;41.20;;;;;;5119636;27;20667;-74
2023/09/23 04:31:24;;;;;;;3.80;0.97;;;22.30;41.70;;;;;;5116649;28;20177;-76
2023/09/23 04:33:51;;;;;;;4.63;0.90;;;22.20;41.60;;;;;;5115759;28;20623;-75
2023/09/23 04:36:21;;;;;;;2.90;0.83;;;22.80;41.10;;;;;;5119058;27;20194;-72
2023/09/23 04:38:49;;;;;;;2.50;0.80;;;22.90;40.60;;;;;;5118089;28;20260;-72
2023/09/23 04:41:16;;;;;;;1.30;0.70;;;22.50;41.00;;;;;;5117754;28;20660;-74
2023/09/23 04:43:43;;;;;;;1.23;0.83;;;22.50;42.00;;;;;;5119865;28;20539;-74
2023/09/23 04:46:14;;;;;;;4.77;0.90;;;22.60;41.80;;;;;;5116193;28;20234;-76
2023/09/23 04:48:44;;;;;;;1.37;0.63;;;22.60;40.90;;;;;;5118368;28;20195;-75
2023/09/23 04:51:12;;;;;;;2.97;0.80;;;23.00;40.20;;;;;;5113113;28;20188;-74
2023/09/23 04:53:39;;;;;;;2.10;0.90;;;23.00;39.60;;;;;;5119637;27;20182;-75
2023/09/23 04:56:08;;;;;;;3.07;0.80;;;23.80;38.10;;;;;;5113595;28;20196;-73
2023/09/23 04:58:36;;;;;;;1.87;0.87;;;23.30;39.20;;;;;;5117358;28;20274;-74
2023/09/23 05:01:08;;;;;;;4.77;0.80;;;23.60;38.40;;;;;;5114879;28;20190;-76
2023/09/23 05:03:36;;;;;;;2.10;1.00;;;24.30;36.60;;;;;;5116899;28;20276;-74
2023/09/23 05:06:06;;;;;;;2.00;0.83;;;24.80;37.10;;;;;;5106069;28;20201;-75
2023/09/23 05:08:33;;;;;;;2.00;0.70;;;24.80;36.60;;;;;;5103951;28;20274;-76
2023/09/23 05:11:01;;;;;;;1.83;0.80;;;24.90;36.60;;;;;;5110755;27;21027;-74
2023/09/23 05:13:30;;;;;;;3.93;0.90;;;24.10;36.80;;;;;;5110770;27;20181;-75
2023/09/23 05:15:57;;;;;;;1.87;0.60;;;24.30;37.40;;;;;;5116822;27;20261;-75
2023/09/23 05:18:24;;;;;;;1.73;0.60;;;24.70;36.80;;;;;;5116895;27;20186;-76
2023/09/23 05:20:52;;;;;;;1.30;0.70;;;24.50;36.70;;;;;;5100716;27;20177;-76
2023/09/23 05:23:23;;;;;;;3.47;0.80;;;25.00;36.60;;;;;;5114176;27;20182;-74
2023/09/23 05:25:50;;;;;;;3.93;0.60;;;24.90;35.60;;;;;;5111900;27;20213;-75
2023/09/23 05:28:18;;;;;;;3.23;0.80;;;24.90;36.10;;;;;;5111212;27;20193;-75
2023/09/23 05:30:46;;;;;;;1.47;0.60;;;24.70;36.30;;;;;;5108282;27;20178;-75
2023/09/23 05:33:15;;;;;;;0.93;0.50;;;24.70;35.70;;;;;;5113614;27;20182;-75
2023/09/23 05:35:42;;;;;;;2.00;0.90;;;25.00;36.00;;;;;;5117335;27;20199;-75
2023/09/23 05:38:10;;;;;;;1.70;0.70;;;24.80;37.10;;;;;;5117038;27;20273;-74
2023/09/23 05:40:37;;;;;;;2.40;0.60;;;24.30;37.50;;;;;;5115892;27;20186;-72
2023/09/23 05:43:07;;;;;;;2.53;0.60;;;22.70;39.60;;;;;;5115674;27;20250;-76
2023/09/23 05:45:37;;;;;;;2.50;0.60;;;22.30;40.60;;;;;;5119016;27;20235;-72
2023/09/23 05:48:05;;;;;;;2.67;0.70;;;21.80;41.30;;;;;;5116851;27;20567;-76
2023/09/23 05:50:33;;;;;;;1.07;0.70;;;21.50;41.20;;;;;;5110354;27;21640;-75
2023/09/23 05:53:00;;;;;;;1.73;0.70;;;21.50;42.40;;;;;;5109610;27;20177;-73
2023/09/23 05:55:31;;;;;;;3.70;0.93;;;22.40;40.30;;;;;;5115258;27;20178;-72
2023/09/23 05:57:58;;;;;;;5.13;1.07;;;22.40;40.40;;;;;;5113448;27;20276;-73
2023/09/23 06:00:25;;;;;;;2.83;1.10;;;22.40;40.10;;;;;;5113920;27;20214;-74
2023/09/23 06:02:53;;;;;;;1.70;0.80;;;22.80;40.60;;;;;;5115358;27;20654;-75
2023/09/23 06:05:21;;;;;;;3.43;0.90;;;23.60;38.70;;;;;;5115097;27;20554;-73
2023/09/23 06:07:48;;;;;;;2.13;0.73;;;23.20;39.10;;;;;;5116272;27;20273;-73
2023/09/23 06:10:17;;;;;;;3.83;0.67;;;23.50;38.50;;;;;;5120424;27;20201;-73
2023/09/23 06:12:45;;;;;;;2.13;0.87;;;23.10;39.10;;;;;;5118025;27;20189;-71
2023/09/23 06:15:12;;;;;;;5.07;1.50;;;22.90;38.70;;;;;;5111006;27;20201;-75
2023/09/23 06:17:40;;;;;;;2.40;0.80;;;23.10;39.00;;;;;;5124457;27;20354;-73
2023/09/23 06:20:08;;;;;;;4.70;1.10;;;22.80;39.20;;;;;;5118260;27;20336;-72
2023/09/23 06:22:36;;;;;;;1.53;1.00;;;23.30;39.10;;;;;;5121494;27;20210;-73
2023/09/23 06:25:03;;;;;;;5.53;1.60;;;23.20;38.50;;;;;;5115152;27;20185;-74
2023/09/23 06:27:31;;;;;;;2.70;1.07;;;22.80;38.90;;;;;;5120935;27;20567;-75
2023/09/23 06:29:58;;;;;;;1.87;0.97;;;21.50;41.60;;;;;;5116030;27;20536;-76
2023/09/23 06:32:27;;;;;;;3.47;0.80;;;21.40;43.00;;;;;;5116718;27;20670;-74
2023/09/23 06:34:54;;;;;;;3.13;0.80;;;21.30;42.70;;;;;;5113567;27;20253;-74
2023/09/23 06:37:22;;;;;;;2.47;1.00;;;20.90;43.60;;;;;;5115963;27;20213;-76
2023/09/23 06:39:49;;;;;;;3.47;0.70;;;20.70;45.00;;;;;;5120610;27;20218;-72
2023/09/23 06:42:17;;;;;;;1.13;0.63;;;20.60;45.60;;;;;;5123466;27;20186;-76
2023/09/23 06:44:45;;;;;;;5.53;0.97;;;20.90;45.00;;;;;;5127045;27;20241;-76
2023/09/23 06:47:12;;;;;;;4.97;0.70;;;21.30;44.50;;;;;;5121977;27;20217;-75
2023/09/23 06:49:40;;;;;;;2.00;0.60;;;22.30;43.30;;;;;;5121952;27;20572;-74
2023/09/23 06:52:08;;;;;;;3.53;0.70;;;22.80;41.70;;;;;;5120731;27;20186;-74
2023/09/23 06:54:35;;;;;;;2.13;0.80;;;22.30;42.40;;;;;;5124338;27;20185;-71
2023/09/23 06:57:03;;;;;;;2.33;1.03;;;21.10;45.50;;;;;;5127654;27;20234;-73
2023/09/23 06:59:30;;;;;;;2.97;0.87;;;20.40;47.40;;;;;;5124485;27;20192;-74
2023/09/23 07:01:57;;;;;;;4.57;1.40;;;19.90;48.80;;;;;;5124740;27;20659;-74
2023/09/23 07:04:25;;;;;;;1.40;0.83;;;19.40;50.90;;;;;;5117093;27;20193;-74
2023/09/23 07:06:52;;;;;;;2.47;0.70;;;19.40;50.90;;;;;;5115814;27;20217;-74
2023/09/23 07:09:19;;;;;;;1.77;0.70;;;19.30;50.90;;;;;;5122946;27;20238;-74
2023/09/23 07:11:47;;;;;;;3.33;0.90;;;19.20;51.40;;;;;;5124650;27;20252;-75
2023/09/23 07:14:14;;;;;;;0.87;0.80;;;19.10;51.90;;;;;;5116500;27;20644;-75
2023/09/23 07:16:43;;;;;;;2.83;1.10;;;19.20;51.30;;;;;;5124092;27;20551;-76
2023/09/23 07:19:11;;;;;;;2.40;0.70;;;19.20;51.20;;;;;;5116583;27;20216;-77
2023/09/23 07:21:38;;;;;;;2.70;0.90;;;19.10;51.70;;;;;;5124084;27;20264;-74
2023/09/23 07:24:06;;;;;;;1.57;0.83;;;18.90;52.00;;;;;;5110669;27;20192;-75
2023/09/23 07:26:33;;;;;;;3.40;1.13;;;18.70;53.00;;;;;;5118602;27;20205;-75
2023/09/23 07:29:00;;;;;;;2.23;0.90;;;18.60;53.10;;;;;;5116161;27;20182;-77
2023/09/23 07:31:28;;;;;;;2.80;1.00;;;18.40;53.50;;;;;;5117817;27;20651;-74
2023/09/23 07:33:55;;;;;;;1.93;0.90;;;18.50;53.70;;;;;;5118396;27;20230;-74
2023/09/23 07:36:22;;;;;;;3.43;0.97;;;18.30;54.20;;;;;;5116014;27;20174;-76
2023/09/23 07:38:50;;;;;;;1.93;1.10;;;18.10;54.80;;;;;;5119518;27;20181;-74
2023/09/23 07:41:17;;;;;;;3.43;1.10;;;18.00;55.10;;;;;;5115224;27;20217;-74
2023/09/23 07:43:44;;;;;;;1.60;1.10;;;18.00;55.00;;;;;;5110530;27;20265;-75
2023/09/23 07:46:11;;;;;;;4.50;1.13;;;18.20;54.70;;;;;;5111340;27;20229;-75
2023/09/23 07:48:39;;;;;;;1.47;1.10;;;17.90;55.40;;;;;;5106824;27;20204;-75
2023/09/23 07:51:08;;;;;;;1.97;1.10;;;17.80;55.90;;;;;;5117205;27;20185;-75
2023/09/23 07:53:36;;;;;;;3.53;1.43;;;17.80;56.40;;;;;;5107521;28;20178;-75
2023/09/23 07:56:03;;;;;;;3.63;1.43;;;17.60;56.90;;;;;;5109965;28;20585;-76
2023/09/23 07:58:31;;;;;;;3.57;1.23;;;17.50;57.40;;;;;;5116402;28;20233;-76
2023/09/23 08:00:58;;;;;;;2.47;1.23;;;17.40;57.40;;;;;;5109132;28;20174;-76
2023/09/23 08:03:26;;;;;;;6.87;1.40;;;17.50;57.60;;;;;;5119598;28;20305;-74
2023/09/23 08:05:54;;;;;;;2.03;1.10;;;17.40;57.90;;;;;;5113700;28;20829;-77
2023/09/23 08:08:22;;;;;;;1.50;1.00;;;17.30;57.90;;;;;;5115064;28;20727;-76
2023/09/23 08:10:50;;;;;;;2.83;0.90;;;17.30;58.40;;;;;;5114342;28;20186;-77
2023/09/23 08:13:19;;;;;;;3.70;1.30;;;17.30;58.50;;;;;;5119961;28;20197;-74
2023/09/23 08:15:47;;;;;;;4.43;1.50;;;17.20;58.60;;;;;;5111697;27;20221;-75
2023/09/23 08:18:15;;;;;;;4.60;1.50;;;17.20;58.70;;;;;;5111330;28;20189;-75
2023/09/23 08:20:43;;;;;;;2.50;1.13;;;17.20;59.00;;;;;;5111371;28;20204;-77
2023/09/23 08:23:10;;;;;;;2.77;1.20;;;17.10;58.90;;;;;;5116272;28;20205;-75
2023/09/23 08:25:38;;;;;;;3.10;1.33;;;17.00;59.40;;;;;;5110177;28;20174;-74
2023/09/23 08:28:05;;;;;;;3.20;1.33;;;17.00;59.20;;;;;;5114437;27;20599;-75
2023/09/23 08:30:32;;;;;;;4.60;1.40;;;17.00;59.60;;;;;;5110380;28;20209;-77
2023/09/23 08:33:00;;;;;;;6.10;1.30;;;17.00;59.50;;;;;;5119586;28;20188;-76
2023/09/23 08:35:29;;;;;;;1.57;1.20;;;17.00;59.70;;;;;;5107642;28;20518;-75
2023/09/23 08:37:56;;;;;;;3.43;1.57;;;16.90;60.00;;;;;;5115319;28;20587;-76
2023/09/23 08:40:24;;;;;;;3.00;1.23;;;16.90;60.00;;;;;;5105999;27;21156;-75
2023/09/23 08:42:53;;;;;;;2.83;1.33;;;16.90;60.20;;;;;;5113009;28;20654;-75
2023/09/23 08:45:26;;;;;;;2.80;1.30;;;16.90;60.30;;;;;;5119395;27;20193;-75
2023/09/23 08:47:54;;;;;;;2.03;1.30;;;16.80;60.60;;;;;;5104523;28;20197;-76
2023/09/23 08:50:24;;;;;;;3.10;1.50;;;16.80;60.10;;;;;;5114654;27;20189;-76
2023/09/23 08:52:55;;;;;;;3.73;1.87;;;16.80;60.30;;;;;;5119143;27;20190;-75
2023/09/23 08:55:24;;;;;;;5.20;2.03;;;16.70;60.40;;;;;;5121462;27;20183;-74
2023/09/23 08:57:52;;;;;;;8.07;1.87;;;16.70;60.80;;;;;;5122066;27;20195;-76
2023/09/23 09:00:20;;;;;;;3.53;1.70;;;16.80;60.50;;;;;;5123404;27;20271;-76
2023/09/23 09:02:48;;;;;;;2.47;1.60;;;16.70;60.60;;;;;;5123987;27;20177;-75
2023/09/23 09:05:16;;;;;;;8.23;2.10;;;16.70;60.80;;;;;;5123625;27;20640;-76
2023/09/23 09:07:43;;;;;;;3.20;1.83;;;16.70;60.80;;;;;;5127005;27;20226;-74
2023/09/23 09:10:11;;;;;;;2.63;1.73;;;16.70;60.60;;;;;;5125039;27;20184;-77
2023/09/23 09:12:38;;;;;;;9.67;1.80;;;16.70;60.60;;;;;;5125872;27;20178;-80
2023/09/23 09:15:06;;;;;;;3.07;1.63;;;16.60;60.70;;;;;;5128616;27;20603;-78
2023/09/23 09:17:33;;;;;;;3.63;1.80;;;16.60;60.40;;;;;;5123896;27;20186;-80
2023/09/23 09:20:11;;;;;;;6.23;3.17;;;16.70;60.70;;;;;;5123209;27;20365;-78
2023/09/23 09:22:44;;;;;;;8.37;4.13;;;16.60;60.90;;;;;;5119370;27;20183;-80
2023/09/23 09:25:11;;;;;;;6.77;2.40;;;16.60;61.00;;;;;;5120356;27;20584;-79
2023/09/23 09:27:39;;;;;;;7.10;2.10;;;16.50;60.90;;;;;;5123635;27;20241;-76
2023/09/23 09:30:11;;;;;;;5.60;2.33;;;16.60;61.10;;;;;;5123956;27;20181;-79
2023/09/23 09:32:42;;;;;;;4.40;1.60;;;16.50;61.20;;;;;;5124175;27;20578;-77
2023/09/23 09:35:20;;;;;;;2.97;1.70;;;16.50;61.40;;;;;;5125872;27;20223;-77
2023/09/23 09:37:49;;;;;;;5.67;1.50;;;16.50;61.50;;;;;;5123237;27;20188;-75
2023/09/23 09:40:23;;;;;;;3.50;1.60;;;16.60;61.70;;;;;;5116563;27;20195;-76
2023/09/23 09:42:55;;;;;;;6.90;3.07;;;16.60;62.00;;;;;;5110338;27;20194;-74
2023/09/23 09:45:23;;;;;;;6.20;2.10;;;16.50;61.70;;;;;;5106651;27;20188;-76
2023/09/23 09:47:53;;;;;;;5.30;2.50;;;16.50;62.00;;;;;;5104287;27;20220;-77
2023/09/23 09:50:22;;;;;;;3.43;2.10;;;16.50;62.30;;;;;;5119717;27;20180;-75
2023/09/23 09:52:49;;;;;;;6.50;2.50;;;16.50;62.80;;;;;;5120879;27;20179;-77
2023/09/23 09:55:20;;;;;;;5.97;2.60;;;16.40;62.70;;;;;;5117278;27;20200;-77
2023/09/23 09:57:48;;;;;;;6.50;2.20;;;16.40;62.50;;;;;;5117353;27;20178;-77
2023/09/23 10:03:01;;;;;;;3.90;2.20;;;16.40;63.10;;;;;;5117619;27;20184;-76
2023/09/23 10:05:40;;;;;;;5.50;2.43;;;16.40;63.20;;;;;;5123359;27;20189;-74
2023/09/23 10:08:25;;;;;;;4.17;2.40;;;16.30;63.30;;;;;;5123356;27;20200;-77
2023/09/23 10:11:04;;;;;;;4.20;2.50;;;16.30;63.30;;;;;;5126742;27;20188;-76
2023/09/23 10:13:35;;;;;;;4.27;1.97;;;16.20;63.40;;;;;;5118176;27;20647;-74
2023/09/23 10:16:13;;;;;;;4.37;2.00;;;16.30;63.00;;;;;;5116684;27;20193;-76
2023/09/23 10:18:41;;;;;;;2.60;1.53;;;16.20;62.80;;;;;;5116757;27;20186;-76
2023/09/23 10:21:21;;;;;;;3.43;1.60;;;16.30;62.40;;;;;;5119562;27;20196;-75
2023/09/23 10:23:50;;;;;;;3.50;1.83;;;16.30;62.20;;;;;;5122747;27;20178;-77
2023/09/23 10:26:23;;;;;;;5.90;1.60;;;16.30;62.50;;;;;;5119434;27;20219;-77
2023/09/23 10:29:06;;;;;;;3.70;1.50;;;16.20;62.50;;;;;;5122070;27;20227;-76
2023/09/23 10:31:35;;;;;;;5.37;1.50;;;16.20;61.90;;;;;;5118528;27;20182;-74
2023/09/23 10:34:06;;;;;;;3.97;1.97;;;16.30;61.90;;;;;;5124716;27;20235;-80
2023/09/23 10:36:36;;;;;;;3.07;1.50;;;16.20;62.20;;;;;;5128303;27;20178;-81
2023/09/23 10:39:15;;;;;;;2.83;1.40;;;16.20;62.40;;;;;;5121425;27;20216;-77
2023/09/23 10:41:44;;;;;;;4.20;1.60;;;16.20;62.80;;;;;;5122338;27;20190;-77
2023/09/23 10:44:11;;;;;;;4.97;2.67;;;16.20;63.10;;;;;;5104918;27;20182;-74
2023/09/23 10:46:39;;;;;;;4.17;2.47;;;16.10;63.40;;;;;;5115507;27;20224;-78
2023/09/23 10:49:07;;;;;;;8.17;3.00;;;16.00;62.90;;;;;;5114618;27;20642;-76
2023/09/23 10:51:34;;;;;;;5.07;3.00;;;16.00;63.50;;;;;;5119990;27;20195;-75
2023/09/23 10:54:02;;;;;;;11.23;5.07;;;16.00;63.00;;;;;;5118061;27;20179;-76
2023/09/23 10:56:29;;;;;;;10.87;6.10;;;16.00;62.60;;;;;;5115046;27;20211;-75
2023/09/23 10:58:58;;;;;;;7.13;4.73;;;15.90;63.00;;;;;;5098621;27;20190;-75
2023/09/23 11:01:25;;;;;;;5.60;4.30;;;16.00;62.50;;;;;;5116836;27;20185;-81
2023/09/23 11:03:54;;;;;;;7.13;4.37;;;15.90;62.30;;;;;;5123127;27;20242;-77
2023/09/23 11:06:21;;;;;;;7.90;4.47;;;15.90;62.90;;;;;;5114808;27;20302;-79
2023/09/23 11:08:50;;;;;;;8.30;4.17;;;15.90;63.40;;;;;;5122693;27;20178;-76
2023/09/23 11:11:19;;;;;;;7.40;3.47;;;15.90;63.30;;;;;;5114676;27;20247;-79
2023/09/23 11:13:48;;;;;;;4.63;3.63;;;15.80;63.30;;;;;;5122451;27;20620;-77
2023/09/23 11:16:16;;;;;;;6.50;4.37;;;15.80;63.60;;;;;;5118759;27;20236;-80
2023/09/23 11:18:44;;;;;;;10.00;4.60;;;15.70;64.10;;;;;;5113057;27;20547;-83
2023/09/23 11:21:11;;;;;;;5.13;3.83;;;15.70;64.50;;;;;;5115648;27;20235;-80
2023/09/23 11:23:39;;;;;;;7.37;3.70;;;15.50;64.60;;;;;;5120464;27;20186;-77
2023/09/23 11:26:07;;;;;;;6.80;3.90;;;15.50;64.90;;;;;;5116499;27;20194;-79
2023/09/23 11:35:04;;;;;;;4.67;2.90;;;15.30;65.70;;;;;;4692346;27;20264;-80
2023/09/23 11:37:31;;;;;;;6.67;2.73;;;15.30;66.00;;;;;;5121067;27;20243;-82
2023/09/23 11:40:03;;;;;;;4.20;3.07;;;15.20;66.40;;;;;;5116020;27;20725;-82
2023/09/23 11:42:30;;;;;;;4.77;2.87;;;15.20;67.00;;;;;;5113881;27;20666;-80
2023/09/23 11:44:57;;;;;;;8.77;3.43;;;15.20;66.80;;;;;;5098982;27;20181;-81
2023/09/23 11:47:25;;;;;;;3.80;2.67;;;15.20;67.20;;;;;;5114605;28;20245;-81
2023/09/23 11:49:52;;;;;;;4.03;3.10;;;15.10;67.60;;;;;;5119000;27;20182;-80
2023/09/23 11:52:19;;;;;;;5.67;2.97;;;15.00;67.60;;;;;;5124163;27;20218;-81
2023/09/23 11:54:47;;;;;;;4.60;2.50;;;15.00;67.60;;;;;;5119794;27;20201;-78
2023/09/23 11:57:14;;;;;;;4.87;3.30;;;15.00;67.70;;;;;;5112105;28;20238;-79
2023/09/23 11:59:42;;;;;;;5.17;3.47;;;14.90;68.30;;;;;;5119356;28;20185;-78
2023/09/23 12:02:09;;;;;;;5.27;3.33;;;14.90;68.70;;;;;;5123503;28;20230;-75
2023/09/23 12:04:36;;;;;;;7.50;3.50;;;14.90;68.80;;;;;;5116956;27;20197;-80
2023/09/23 12:07:06;;;;;;;4.70;2.93;;;14.80;68.80;;;;;;5123226;28;20252;-76
2023/09/23 12:09:37;;;;;;;6.93;4.00;;;14.80;69.40;;;;;;5119059;28;20190;-79
2023/09/23 12:12:04;;;;;;;9.07;3.90;;;14.80;69.20;;;;;;5124913;28;20287;-77
2023/09/23 12:14:32;;;;;;;6.33;3.50;;;14.80;69.60;;;;;;5116935;28;20631;-77
2023/09/23 12:17:00;;;;;;;6.23;3.43;;;14.70;69.60;;;;;;5112688;28;20700;-77
2023/09/23 12:19:27;;;;;;;5.20;3.60;;;14.70;69.80;;;;;;5104754;28;20265;-74
2023/09/23 12:21:54;;;;;;;5.17;3.50;;;14.60;70.20;;;;;;5113811;27;20185;-76
2023/09/23 12:24:22;;;;;;;6.23;3.80;;;14.60;70.10;;;;;;5113895;27;20213;-77
2023/09/23 12:26:49;;;;;;;7.97;4.33;;;14.60;70.50;;;;;;5123864;27;20630;-76
2023/09/23 12:29:16;;;;;;;5.27;3.33;;;14.50;70.30;;;;;;5121431;27;20273;-78
2023/09/23 12:31:44;;;;;;;8.60;3.97;;;14.50;70.80;;;;;;5121548;27;20192;-77
2023/09/23 12:34:11;;;;;;;4.80;3.33;;;14.50;70.90;;;;;;5114704;27;20618;-75
2023/09/23 12:36:39;;;;;;;6.47;3.70;;;14.50;70.90;;;;;;5120507;27;20197;-76
2023/09/23 12:39:06;;;;;;;5.57;3.70;;;14.50;71.10;;;;;;5121526;27;20183;-76
2023/09/23 12:41:34;;;;;;;7.00;3.67;;;14.40;71.40;;;;;;5119811;27;20188;-77
2023/09/23 12:44:01;;;;;;;6.03;3.50;;;14.40;71.40;;;;;;5112974;27;20187;-78
2023/09/23 12:46:28;;;;;;;6.23;3.67;;;14.50;71.20;;;;;;5124180;27;20220;-78
2023/09/23 12:48:56;;;;;;;6.93;3.43;;;14.50;71.50;;;;;;5120707;27;20184;-79
2023/09/23 12:51:23;;;;;;;7.10;3.73;;;14.40;71.90;;;;;;5125570;27;20231;-76
2023/09/23 12:53:50;;;;;;;6.33;3.87;;;14.40;72.30;;;;;;5123640;27;20182;-79
2023/09/23 12:56:19;;;;;;;6.67;3.30;;;14.40;72.60;;;;;;5125096;27;20203;-78
2023/09/23 12:58:46;;;;;;;4.90;3.50;;;14.40;72.50;;;;;;5121879;27;20173;-77
2023/09/23 13:01:13;;;;;;;10.00;3.53;;;14.30;72.80;;;;;;5120195;27;20189;-79